createdAt,value
2019-05-21T00:04:49.660Z,96.90
2019-05-21T00:09:54.489Z,96.80
2019-05-21T00:15:02.991Z,96.80
2019-05-21T00:20:08.437Z,96.80
2019-05-21T00:25:17.107Z,97.00
2019-05-21T00:31:01.467Z,97.00
2019-05-21T00:36:56.402Z,97.20
2019-05-21T00:42:10.827Z,96.70
2019-05-21T00:47:16.828Z,96.70
2019-05-21T00:52:24.210Z,96.50
2019-05-21T00:57:28.847Z,96.80
2019-05-21T01:02:32.046Z,96.60
2019-05-21T01:07:44.921Z,96.60
2019-05-21T01:12:51.256Z,96.70
2019-05-21T01:18:08.486Z,96.60
2019-05-21T01:23:12.674Z,96.80
2019-05-21T01:28:50.129Z,96.70
2019-05-21T01:33:56.739Z,96.50
2019-05-21T01:39:01.778Z,96.70
2019-05-21T01:44:16.788Z,97.00
2019-05-21T01:49:21.242Z,96.80
2019-05-21T01:54:25.539Z,96.80
2019-05-21T01:59:29.946Z,96.90
2019-05-21T02:04:36.772Z,96.90
2019-05-21T02:09:59.059Z,96.90
2019-05-21T02:15:03.421Z,96.80
2019-05-21T02:20:09.297Z,96.60
2019-05-21T02:25:15.244Z,96.80
2019-05-21T02:30:24.668Z,96.60
2019-05-21T02:35:30.371Z,96.80
2019-05-21T02:40:41.541Z,96.90
2019-05-21T02:45:51.709Z,97.60
2019-05-21T02:50:59.176Z,97.20
2019-05-21T02:56:06.216Z,97.10
2019-05-21T03:01:51.013Z,97.10
2019-05-21T03:07:16.040Z,97.10
2019-05-21T03:12:33.732Z,97.20
2019-05-21T03:17:38.152Z,97.50
2019-05-21T03:22:46.885Z,97.40
2019-05-21T03:27:51.054Z,97.60
2019-05-21T03:32:55.245Z,97.90
2019-05-21T03:38:01.645Z,98.00
2019-05-21T03:43:06.026Z,97.60
2019-05-21T03:48:12.548Z,97.50
2019-05-21T03:53:35.685Z,97.50
2019-05-21T03:58:43.869Z,97.70
2019-05-21T04:03:50.872Z,97.30
2019-05-21T04:08:55.194Z,97.50
2019-05-21T04:13:59.790Z,97.50
2019-05-21T04:19:10.721Z,97.20
2019-05-21T04:24:18.238Z,97.10
2019-05-21T04:29:22.676Z,97.00
2019-05-21T04:34:30.437Z,96.90
2019-05-21T04:39:34.672Z,96.90
2019-05-21T04:44:43.930Z,97.10
2019-05-21T04:49:50.164Z,97.10
2019-05-21T04:54:54.329Z,97.00
2019-05-21T04:59:58.446Z,96.70
2019-05-21T05:05:07.091Z,97.20
2019-05-21T05:10:16.928Z,97.30
2019-05-21T05:15:22.131Z,96.90
2019-05-21T05:20:27.801Z,97.00
2019-05-21T05:25:54.273Z,96.90
2019-05-21T05:31:01.559Z,96.80
2019-05-21T05:36:09.918Z,97.10
2019-05-21T05:41:19.928Z,96.90
2019-05-21T05:46:24.350Z,97.00
2019-05-21T05:51:30.868Z,97.00
2019-05-21T05:56:39.448Z,96.50
2019-05-21T06:01:46.245Z,96.50
2019-05-21T06:06:52.672Z,97.00
2019-05-21T06:11:59.229Z,96.60
2019-05-21T06:17:04.730Z,96.60
2019-05-21T06:22:12.888Z,96.80
2019-05-21T06:27:26.997Z,96.50
2019-05-21T06:32:31.422Z,96.70
2019-05-21T06:37:37.548Z,96.70
2019-05-21T06:42:46.527Z,96.40
2019-05-21T06:47:54.115Z,96.50
2019-05-21T06:53:02.110Z,96.40
2019-05-21T06:58:08.627Z,96.40
2019-05-21T07:03:14.579Z,96.60
2019-05-21T07:08:34.532Z,96.10
2019-05-21T07:13:34.948Z,96.30
2019-05-21T07:18:41.645Z,96.10
2019-05-21T07:23:48.751Z,96.60
2019-05-21T07:28:56.456Z,96.20
2019-05-21T07:34:08.324Z,96.50
2019-05-21T07:39:15.365Z,96.40
2019-05-21T07:44:28.929Z,96.10
2019-05-21T07:49:36.898Z,96.50
2019-05-21T07:54:44.102Z,95.90
2019-05-21T07:59:54.664Z,95.70
2019-05-21T08:05:02.982Z,95.40
2019-05-21T08:10:10.883Z,95.60
2019-05-21T08:15:15.147Z,95.50
2019-05-21T08:20:20.045Z,95.00
2019-05-21T08:25:27.396Z,95.30
2019-05-21T08:30:33.891Z,95.50
2019-05-21T08:35:39.394Z,95.00
2019-05-21T08:40:46.367Z,95.00
2019-05-21T08:45:51.096Z,95.20
2019-05-21T08:50:55.854Z,94.90
2019-05-21T08:56:03.619Z,95.10
2019-05-21T09:01:11.049Z,95.10
2019-05-21T09:06:15.382Z,95.10
2019-05-21T09:11:19.621Z,95.20
2019-05-21T09:16:24.261Z,95.20
2019-05-21T09:21:31.684Z,95.00
2019-05-21T09:26:38.738Z,95.10
2019-05-21T09:31:43.153Z,95.20
2019-05-21T09:36:49.652Z,95.00
2019-05-21T09:41:55.048Z,95.00
2019-05-21T09:47:00.519Z,94.90
2019-05-21T09:52:12.044Z,94.70
2019-05-21T09:57:22.181Z,94.70
2019-05-21T10:02:30.100Z,94.90
2019-05-21T10:07:40.017Z,95.00
2019-05-21T10:12:43.062Z,95.00
2019-05-21T10:17:55.693Z,95.20
2019-05-21T10:23:01.674Z,95.30
2019-05-21T10:28:08.437Z,95.20
2019-05-21T10:33:12.704Z,94.90
2019-05-21T10:38:16.992Z,95.30
2019-05-21T10:43:21.370Z,95.00
2019-05-21T10:48:25.714Z,94.60
2019-05-21T10:53:32.332Z,95.10
2019-05-21T10:58:36.743Z,95.00
2019-05-21T11:03:58.751Z,94.60
2019-05-21T11:09:07.434Z,95.30
2019-05-21T11:14:20.205Z,94.60
2019-05-21T11:19:26.470Z,94.60
2019-05-21T11:24:32.398Z,94.90
2019-05-21T11:29:37.543Z,94.60
2019-05-21T11:34:41.795Z,95.00
2019-05-21T11:39:46.513Z,95.10
2019-05-21T11:44:54.284Z,95.10
2019-05-21T11:50:02.020Z,94.80
2019-05-21T11:55:10.040Z,94.90
2019-05-21T12:00:15.247Z,95.20
2019-05-21T12:05:25.146Z,95.70
2019-05-21T12:10:31.758Z,95.10
2019-05-21T12:15:37.834Z,95.40
2019-05-21T12:20:44.322Z,95.50
2019-05-21T12:25:51.559Z,95.20
2019-05-21T12:31:03.344Z,95.60
2019-05-21T12:36:10.052Z,94.80
2019-05-21T12:41:15.677Z,94.90
2019-05-21T12:46:26.239Z,95.00
2019-05-21T12:51:31.118Z,95.50
2019-05-21T12:57:01.827Z,95.30
2019-05-21T13:02:06.097Z,95.00
2019-05-21T13:07:14.243Z,95.20
2019-05-21T13:12:22.432Z,95.60
2019-05-21T13:17:29.219Z,95.40
2019-05-21T13:22:33.853Z,95.60
2019-05-21T13:27:41.274Z,95.10
2019-05-21T13:32:45.698Z,94.80
2019-05-21T13:37:50.036Z,95.00
2019-05-21T13:43:02.163Z,95.10
2019-05-21T13:48:14.830Z,95.00
2019-05-21T13:53:19.226Z,94.90
2019-05-21T13:58:23.634Z,95.30
2019-05-21T14:03:27.935Z,95.30
2019-05-21T14:08:39.010Z,95.40
2019-05-21T14:13:43.665Z,95.10
2019-05-21T14:18:49.769Z,95.10
2019-05-21T14:23:57.051Z,94.80
2019-05-21T14:29:01.397Z,94.60
2019-05-21T14:34:05.703Z,94.40
2019-05-21T14:39:15.270Z,94.40
2019-05-21T14:44:22.948Z,94.50
2019-05-21T14:49:28.320Z,94.70
2019-05-21T14:54:34.362Z,94.50
2019-05-21T14:59:39.188Z,94.60
2019-05-21T15:04:44.889Z,94.50
2019-05-21T15:09:53.630Z,94.40
2019-05-21T15:15:13.932Z,94.50
2019-05-21T15:20:30.148Z,94.70
2019-05-21T15:25:36.126Z,94.60
2019-05-21T15:30:46.263Z,94.50
2019-05-21T15:35:58.170Z,94.40
2019-05-21T15:41:12.520Z,94.40
2019-05-21T15:46:13.121Z,94.50
2019-05-21T15:51:24.424Z,94.70
2019-05-21T15:56:58.528Z,93.90
2019-05-21T16:02:03.702Z,94.20
2019-05-21T16:07:10.612Z,94.30
2019-05-21T16:12:20.367Z,94.20
2019-05-21T16:17:26.240Z,94.10
2019-05-21T16:22:33.738Z,93.80
2019-05-21T16:27:42.665Z,93.70
2019-05-21T16:32:47.745Z,93.60
2019-05-21T16:37:52.782Z,93.40
2019-05-21T16:42:57.353Z,93.80
2019-05-21T16:48:04.669Z,93.80
2019-05-21T16:53:13.411Z,93.30
2019-05-21T16:58:17.659Z,93.20
2019-05-21T17:03:31.139Z,93.30
2019-05-21T17:14:43.382Z,93.10
2019-05-21T17:20:49.210Z,93.00
2019-05-21T17:26:22.703Z,93.10
2019-05-21T17:31:31.422Z,93.30
2019-05-21T17:36:41.623Z,93.40
2019-05-21T17:42:15.541Z,93.10
2019-05-21T17:47:59.956Z,93.20
2019-05-21T17:53:07.671Z,93.10
2019-05-21T17:58:19.273Z,93.20
2019-05-21T18:03:26.316Z,93.30
2019-05-21T18:08:32.340Z,93.10
2019-05-21T18:14:06.155Z,93.40
2019-05-21T18:19:18.041Z,93.30
2019-05-21T18:24:24.365Z,93.20
2019-05-21T18:29:28.584Z,93.30
2019-05-21T18:34:34.462Z,93.10
2019-05-21T18:39:41.739Z,93.20
2019-05-21T18:44:46.001Z,93.20
2019-05-21T18:49:52.586Z,93.20
2019-05-21T18:54:57.296Z,93.40
2019-05-21T19:00:00.558Z,93.30
2019-05-21T19:05:05.083Z,93.40
2019-05-21T19:10:11.405Z,93.40
2019-05-21T19:15:16.097Z,93.30
2019-05-21T19:20:22.174Z,93.40
2019-05-21T19:25:56.409Z,93.40
2019-05-21T19:31:01.789Z,93.50
2019-05-21T19:36:07.384Z,93.70
2019-05-21T19:41:14.002Z,93.50
2019-05-21T19:46:21.561Z,93.20
2019-05-21T19:51:26.334Z,93.50
2019-05-21T19:56:30.841Z,93.50
2019-05-21T20:01:37.041Z,93.50
2019-05-21T20:06:43.114Z,93.60
2019-05-21T20:11:49.593Z,93.60
2019-05-21T20:17:17.677Z,93.70
2019-05-21T20:22:26.193Z,93.50
2019-05-21T20:27:30.314Z,93.50
2019-05-21T20:32:37.836Z,93.50
2019-05-21T20:37:43.925Z,93.70
2019-05-21T20:48:04.917Z,93.70
2019-05-21T20:53:11.708Z,93.70
2019-05-21T21:03:31.619Z,93.70
2019-05-21T21:08:38.956Z,93.90
2019-05-21T21:13:57.817Z,94.00
2019-05-21T21:19:04.879Z,94.00
2019-05-21T21:24:33.902Z,93.90
2019-05-21T21:29:38.080Z,94.30
2019-05-21T21:34:46.964Z,93.90
2019-05-21T21:39:54.041Z,94.20
2019-05-21T21:45:00.430Z,94.00
2019-05-21T21:50:07.096Z,93.90
2019-05-21T21:55:14.084Z,94.20
2019-05-21T22:01:31.861Z,94.20
2019-05-21T22:06:39.747Z,94.30
2019-05-21T22:11:46.561Z,93.90
2019-05-21T22:16:51.982Z,94.20
2019-05-21T22:21:59.178Z,94.30
2019-05-21T22:27:03.608Z,94.10
2019-05-21T22:32:36.801Z,94.40
2019-05-21T22:37:41.521Z,94.60
2019-05-21T22:42:47.556Z,95.00
2019-05-21T22:47:56.904Z,94.60
2019-05-21T22:53:01.155Z,94.80
2019-05-21T22:58:08.880Z,94.50
2019-05-21T23:03:15.273Z,94.80
2019-05-21T23:08:21.096Z,94.90
2019-05-21T23:13:26.758Z,95.00
2019-05-21T23:18:32.197Z,94.90
2019-05-21T23:23:41.671Z,95.30
2019-05-21T23:28:46.161Z,95.50
2019-05-21T23:33:51.307Z,95.00
2019-05-21T23:38:57.783Z,95.30
2019-05-21T23:44:15.008Z,95.40
2019-05-21T23:49:21.209Z,95.30
2019-05-21T23:54:25.664Z,95.30
2019-05-21T23:59:32.703Z,95.10
